createdAt,value
2023-06-07T00:00:06.893Z,9.37
2023-06-07T00:02:44.481Z,8.00
2023-06-07T00:05:14.900Z,8.37
2023-06-07T00:07:43.595Z,8.30
2023-06-07T00:10:12.940Z,9.07
2023-06-07T00:12:42.899Z,9.77
2023-06-07T00:15:14.346Z,9.37
2023-06-07T00:17:44.371Z,9.10
2023-06-07T00:20:14.298Z,8.27
2023-06-07T00:22:43.391Z,9.33
2023-06-07T00:25:12.276Z,8.53
2023-06-07T00:27:40.970Z,8.60
2023-06-07T00:30:10.889Z,8.63
2023-06-07T00:32:40.770Z,8.07
2023-06-07T00:35:10.362Z,9.00
2023-06-07T00:37:38.855Z,8.63
2023-06-07T00:40:08.508Z,9.00
2023-06-07T00:42:37.099Z,8.50
2023-06-07T00:45:06.287Z,8.20
2023-06-07T00:47:35.425Z,8.83
2023-06-07T00:50:05.584Z,7.63
2023-06-07T00:52:36.025Z,8.87
2023-06-07T00:55:08.101Z,9.60
2023-06-07T00:57:36.778Z,9.33
2023-06-07T01:00:07.818Z,9.83
2023-06-07T01:02:36.548Z,9.23
2023-06-07T01:05:07.990Z,8.73
2023-06-07T01:07:36.559Z,9.17
2023-06-07T01:10:07.295Z,9.70
2023-06-07T01:12:37.601Z,9.23
2023-06-07T01:15:07.378Z,8.37
2023-06-07T01:17:42.490Z,8.90
2023-06-07T01:20:14.906Z,10.17
2023-06-07T01:22:47.206Z,9.70
2023-06-07T01:25:17.354Z,8.47
2023-06-07T01:27:48.194Z,8.87
2023-06-07T01:30:17.643Z,8.53
2023-06-07T01:32:47.797Z,8.20
2023-06-07T01:35:16.887Z,9.23
2023-06-07T01:37:48.705Z,8.53
2023-06-07T01:40:18.808Z,8.80
2023-06-07T01:42:48.225Z,8.80
2023-06-07T01:45:17.141Z,9.17
2023-06-07T01:47:46.213Z,9.17
2023-06-07T01:50:22.600Z,9.77
2023-06-07T01:52:51.299Z,10.00
2023-06-07T01:55:22.436Z,9.90
2023-06-07T01:57:59.442Z,8.77
2023-06-07T02:00:33.979Z,10.23
2023-06-07T02:03:09.164Z,9.93
2023-06-07T02:05:41.049Z,11.27
2023-06-07T02:08:15.239Z,9.50
2023-06-07T02:10:47.294Z,9.43
2023-06-07T02:13:17.435Z,9.77
2023-06-07T02:15:47.291Z,10.47
2023-06-07T02:18:20.502Z,10.23
2023-06-07T02:20:49.180Z,11.30
2023-06-07T02:23:17.614Z,11.30
2023-06-07T02:25:47.352Z,10.93
2023-06-07T02:28:18.910Z,11.07
2023-06-07T02:30:47.494Z,11.10
2023-06-07T02:33:15.933Z,10.17
2023-06-07T02:35:46.830Z,11.43
2023-06-07T02:38:15.495Z,10.97
2023-06-07T02:40:44.295Z,11.67
2023-06-07T02:43:15.347Z,11.40
2023-06-07T02:45:43.872Z,11.30
2023-06-07T02:48:14.113Z,12.57
2023-06-07T02:50:42.909Z,12.20
2023-06-07T02:53:11.412Z,13.17
2023-06-07T02:55:39.881Z,12.10
2023-06-07T02:58:08.420Z,10.87
2023-06-07T03:00:40.864Z,11.73
2023-06-07T03:03:13.619Z,11.57
2023-06-07T03:05:49.411Z,11.97
2023-06-07T03:08:19.003Z,12.93
2023-06-07T03:10:47.635Z,11.03
2023-06-07T03:13:23.439Z,11.27
2023-06-07T03:15:53.520Z,12.30
2023-06-07T03:18:22.428Z,12.70
2023-06-07T03:20:57.263Z,11.87
2023-06-07T03:23:26.961Z,12.77
2023-06-07T03:25:57.769Z,12.53
2023-06-07T03:28:30.551Z,12.97
2023-06-07T03:31:00.818Z,12.03
2023-06-07T03:33:39.526Z,12.40
2023-06-07T03:36:08.916Z,12.17
2023-06-07T03:38:39.655Z,13.10
2023-06-07T03:41:08.198Z,12.20
2023-06-07T03:43:41.017Z,12.60
2023-06-07T03:46:11.304Z,11.93
2023-06-07T03:48:40.134Z,11.73
2023-06-07T03:51:09.969Z,12.10
2023-06-07T03:53:39.054Z,11.43
2023-06-07T03:56:08.114Z,11.67
2023-06-07T03:58:38.853Z,12.67
2023-06-07T04:01:17.630Z,12.77
2023-06-07T04:03:48.065Z,12.63
2023-06-07T04:06:17.411Z,12.73
2023-06-07T04:08:46.838Z,12.33
2023-06-07T04:11:15.584Z,12.47
2023-06-07T04:13:45.404Z,12.77
2023-06-07T04:16:14.851Z,12.53
2023-06-07T04:18:48.075Z,12.10
2023-06-07T04:21:17.157Z,12.07
2023-06-07T04:23:47.921Z,13.07
2023-06-07T04:26:23.198Z,12.27
2023-06-07T04:28:52.661Z,12.10
2023-06-07T04:31:30.830Z,12.83
2023-06-07T04:34:03.692Z,11.57
2023-06-07T04:36:38.681Z,13.53
2023-06-07T04:39:12.495Z,12.47
2023-06-07T04:41:46.431Z,11.70
2023-06-07T04:44:30.250Z,13.53
2023-06-07T04:47:13.103Z,13.07
2023-06-07T04:49:44.081Z,12.70
2023-06-07T04:52:13.670Z,12.10
2023-06-07T04:54:48.497Z,12.57
2023-06-07T04:57:19.696Z,12.17
2023-06-07T04:59:50.674Z,13.23
2023-06-07T05:02:24.571Z,12.90
2023-06-07T05:04:58.797Z,12.60
2023-06-07T05:07:33.523Z,12.63
2023-06-07T05:10:04.070Z,12.10
2023-06-07T05:12:32.969Z,12.30
2023-06-07T05:15:01.919Z,11.87
2023-06-07T05:17:31.041Z,12.03
2023-06-07T05:20:01.222Z,12.43
2023-06-07T05:22:31.146Z,12.23
2023-06-07T05:24:59.985Z,12.43
2023-06-07T05:27:28.446Z,12.37
2023-06-07T05:29:56.949Z,11.90
2023-06-07T05:32:25.644Z,12.13
2023-06-07T05:34:54.218Z,11.67
2023-06-07T05:37:25.462Z,12.77
2023-06-07T05:39:54.049Z,11.47
2023-06-07T05:42:22.829Z,12.37
2023-06-07T05:44:52.004Z,12.27
2023-06-07T05:47:22.043Z,11.97
2023-06-07T05:49:50.592Z,12.50
2023-06-07T05:52:20.112Z,12.17
2023-06-07T05:54:55.656Z,11.33
2023-06-07T05:57:24.672Z,13.33
2023-06-07T05:59:53.161Z,13.17
2023-06-07T06:02:22.157Z,11.63
2023-06-07T06:04:53.767Z,12.17
2023-06-07T06:07:22.481Z,11.53
2023-06-07T06:09:52.548Z,11.93
2023-06-07T06:12:20.956Z,11.83
2023-06-07T06:14:49.472Z,12.40
2023-06-07T06:17:18.001Z,12.00
2023-06-07T06:19:46.569Z,12.07
2023-06-07T06:22:17.604Z,11.83
2023-06-07T06:24:46.941Z,12.47
2023-06-07T06:27:17.135Z,13.00
2023-06-07T06:29:45.653Z,13.63
2023-06-07T06:32:14.411Z,11.57
2023-06-07T06:34:43.148Z,12.17
2023-06-07T06:37:11.584Z,12.80
2023-06-07T06:39:40.064Z,11.40
2023-06-07T06:42:09.201Z,12.43
2023-06-07T06:44:59.378Z,11.77
2023-06-07T06:47:28.224Z,11.97
2023-06-07T06:49:56.769Z,11.03
2023-06-07T06:52:27.317Z,12.00
2023-06-07T06:54:56.030Z,11.40
2023-06-07T06:57:24.710Z,11.37
2023-06-07T06:59:53.403Z,10.67
2023-06-07T07:02:23.656Z,11.33
2023-06-07T07:04:52.366Z,10.53
2023-06-07T07:07:20.968Z,11.60
2023-06-07T07:09:50.549Z,10.80
2023-06-07T07:12:20.415Z,11.17
2023-06-07T07:14:49.027Z,11.50
2023-06-07T07:17:18.342Z,11.17
2023-06-07T07:19:50.729Z,11.17
2023-06-07T07:22:19.188Z,10.97
2023-06-07T07:24:47.632Z,11.30
2023-06-07T07:27:17.537Z,11.67
2023-06-07T07:29:46.096Z,10.20
2023-06-07T07:32:14.899Z,10.77
2023-06-07T07:34:43.442Z,9.87
2023-06-07T07:37:14.379Z,11.23
2023-06-07T07:39:45.950Z,11.40
2023-06-07T07:42:14.811Z,11.53
2023-06-07T07:44:43.289Z,10.63
2023-06-07T07:47:13.256Z,10.53
2023-06-07T07:49:41.817Z,11.07
2023-06-07T07:52:10.415Z,11.27
2023-06-07T07:54:40.521Z,10.20
2023-06-07T07:57:09.043Z,10.70
2023-06-07T07:59:37.523Z,10.33
2023-06-07T08:02:06.817Z,10.27
2023-06-07T08:04:35.425Z,11.03
2023-06-07T08:07:03.953Z,9.73
2023-06-07T08:09:32.613Z,9.93
2023-06-07T08:12:02.531Z,10.57
2023-06-07T08:14:31.311Z,10.63
2023-06-07T08:16:59.746Z,11.27
2023-06-07T08:19:28.717Z,10.17
2023-06-07T08:21:57.198Z,10.40
2023-06-07T08:24:25.829Z,10.73
2023-06-07T08:26:54.420Z,10.47
2023-06-07T08:29:24.461Z,9.77
2023-06-07T08:31:53.583Z,10.53
2023-06-07T08:34:29.012Z,11.03
2023-06-07T08:36:59.600Z,10.97
2023-06-07T08:39:28.098Z,11.60
2023-06-07T08:41:58.075Z,10.93
2023-06-07T08:44:28.122Z,11.33
2023-06-07T08:46:58.787Z,11.93
2023-06-07T08:49:28.023Z,11.37
2023-06-07T08:52:14.738Z,11.53
2023-06-07T08:54:48.165Z,12.20
2023-06-07T08:57:18.045Z,10.93
2023-06-07T08:59:49.697Z,11.57
2023-06-07T09:02:21.062Z,11.57
2023-06-07T09:04:49.616Z,12.17
2023-06-07T09:07:18.254Z,13.13
2023-06-07T09:09:46.725Z,11.97
2023-06-07T09:12:15.393Z,12.27
2023-06-07T09:14:44.605Z,13.20
2023-06-07T09:17:14.669Z,12.27
2023-06-07T09:19:44.224Z,12.27
2023-06-07T09:22:15.582Z,12.67
2023-06-07T09:24:44.557Z,13.37
2023-06-07T09:27:14.621Z,14.10
2023-06-07T09:29:44.981Z,14.03
2023-06-07T09:32:23.178Z,14.30
2023-06-07T09:34:53.537Z,13.83
2023-06-07T09:37:23.136Z,12.67
2023-06-07T09:39:56.974Z,12.70
2023-06-07T09:42:25.604Z,13.20
2023-06-07T09:44:54.523Z,13.93
2023-06-07T09:47:26.139Z,14.37
2023-06-07T09:50:08.386Z,14.47
2023-06-07T09:52:37.484Z,15.63
2023-06-07T09:55:09.383Z,15.10
2023-06-07T09:57:39.968Z,14.47
2023-06-07T10:00:15.152Z,14.60
2023-06-07T10:02:46.851Z,15.63
2023-06-07T10:05:17.596Z,15.07
2023-06-07T10:07:48.100Z,16.33
2023-06-07T10:10:19.219Z,15.20
2023-06-07T10:12:49.934Z,15.23
2023-06-07T10:15:24.202Z,15.50
2023-06-07T10:17:58.311Z,15.63
2023-06-07T10:20:30.535Z,13.87
2023-06-07T10:23:04.994Z,15.10
2023-06-07T10:25:40.341Z,15.10
2023-06-07T10:28:16.949Z,15.77
2023-06-07T10:30:54.298Z,14.53
2023-06-07T10:33:26.552Z,14.67
2023-06-07T10:35:56.321Z,15.13
2023-06-07T10:38:25.803Z,15.80
2023-06-07T10:40:54.753Z,14.30
2023-06-07T10:43:24.125Z,15.40
2023-06-07T10:46:18.695Z,14.07
2023-06-07T10:48:49.237Z,14.57
2023-06-07T10:51:17.949Z,13.77
2023-06-07T10:53:54.469Z,13.70
2023-06-07T10:56:31.853Z,14.77
2023-06-07T10:59:23.823Z,13.87
2023-06-07T11:01:55.712Z,14.40
2023-06-07T11:04:52.969Z,13.47
2023-06-07T11:07:23.568Z,13.40
2023-06-07T11:10:30.697Z,14.40
2023-06-07T11:13:00.130Z,13.73
2023-06-07T11:15:37.081Z,14.23
2023-06-07T11:18:15.353Z,14.40
2023-06-07T11:20:53.199Z,13.97
2023-06-07T11:23:27.073Z,14.17
2023-06-07T11:25:59.614Z,14.23
2023-06-07T11:28:29.577Z,12.97
2023-06-07T11:30:58.958Z,13.70
2023-06-07T11:33:30.138Z,13.07
2023-06-07T11:36:05.111Z,13.93
2023-06-07T11:38:33.767Z,12.97
2023-06-07T11:41:04.480Z,13.43
2023-06-07T11:43:33.836Z,13.60
2023-06-07T11:46:02.560Z,12.77
2023-06-07T11:48:32.586Z,12.90
2023-06-07T11:51:02.709Z,13.33
2023-06-07T11:53:32.456Z,13.00
2023-06-07T11:56:02.014Z,13.27
2023-06-07T11:58:31.041Z,13.03
2023-06-07T12:01:00.025Z,13.60
2023-06-07T12:03:29.184Z,13.43
2023-06-07T12:05:58.040Z,13.17
2023-06-07T12:08:31.466Z,12.67
2023-06-07T12:11:01.596Z,12.83
2023-06-07T12:13:32.536Z,13.70
2023-06-07T12:16:01.234Z,13.53
2023-06-07T12:18:30.921Z,14.30
2023-06-07T12:21:07.441Z,13.27
2023-06-07T12:23:38.400Z,13.30
2023-06-07T12:26:08.124Z,13.37
2023-06-07T12:28:37.198Z,13.10
2023-06-07T12:31:06.324Z,13.60
2023-06-07T12:33:34.897Z,13.00
2023-06-07T12:36:04.117Z,12.50
2023-06-07T12:38:34.360Z,12.47
2023-06-07T12:41:04.354Z,11.83
2023-06-07T12:43:32.893Z,11.87
2023-06-07T12:46:01.410Z,12.50
2023-06-07T12:48:29.931Z,12.20
2023-06-07T12:50:58.564Z,12.87
2023-06-07T12:53:27.788Z,11.60
2023-06-07T12:55:57.559Z,11.67
2023-06-07T12:58:27.669Z,12.30
2023-06-07T13:00:56.174Z,11.33
2023-06-07T13:03:25.171Z,10.37
2023-06-07T13:05:53.728Z,10.83
2023-06-07T13:08:22.242Z,11.27
2023-06-07T13:10:50.771Z,10.60
2023-06-07T13:13:19.327Z,10.37
2023-06-07T13:15:49.379Z,9.40
2023-06-07T13:18:18.455Z,10.27
2023-06-07T13:20:47.495Z,8.43
2023-06-07T13:23:16.178Z,8.97
2023-06-07T13:25:44.817Z,9.45
2023-06-07T13:28:14.071Z,9.13
2023-06-07T13:30:42.621Z,8.38
2023-06-07T13:33:19.535Z,8.70
2023-06-07T13:35:48.073Z,7.68
2023-06-07T13:38:16.794Z,8.07
2023-06-07T13:40:45.397Z,8.40
2023-06-07T13:43:14.083Z,8.43
2023-06-07T13:45:43.822Z,8.68
2023-06-07T13:48:12.490Z,8.20
2023-06-07T13:50:43.970Z,7.55
2023-06-07T13:53:12.647Z,8.63
2023-06-07T13:55:41.546Z,8.20
2023-06-07T13:58:10.188Z,8.43
2023-06-07T14:00:39.024Z,7.88
2023-06-07T14:03:07.827Z,8.20
2023-06-07T14:05:36.930Z,7.53
2023-06-07T14:08:06.976Z,8.48
2023-06-07T14:10:35.446Z,8.45
2023-06-07T14:13:04.175Z,7.47
2023-06-07T14:15:32.686Z,7.28
2023-06-07T14:18:01.247Z,6.93
2023-06-07T14:20:29.845Z,7.28
2023-06-07T14:22:58.354Z,6.82
2023-06-07T14:25:28.550Z,7.53
2023-06-07T14:27:57.101Z,7.53
2023-06-07T14:30:26.885Z,7.50
2023-06-07T14:32:55.559Z,7.63
2023-06-07T14:35:26.185Z,8.27
2023-06-07T14:37:56.264Z,8.18
2023-06-07T14:40:24.786Z,7.90
2023-06-07T14:42:54.796Z,7.70
2023-06-07T14:45:25.971Z,7.28
2023-06-07T14:47:55.239Z,7.95
2023-06-07T14:50:23.757Z,9.05
2023-06-07T14:52:52.307Z,8.65
2023-06-07T14:55:20.995Z,8.27
2023-06-07T14:57:50.152Z,8.02
2023-06-07T15:00:21.742Z,7.45
2023-06-07T15:02:51.092Z,8.57
2023-06-07T15:05:21.180Z,8.82
2023-06-07T15:07:49.843Z,8.32
2023-06-07T15:10:18.759Z,9.07
2023-06-07T15:12:47.474Z,7.60
2023-06-07T15:15:17.478Z,8.13
2023-06-07T15:17:51.120Z,8.70
2023-06-07T15:20:20.572Z,8.18
2023-06-07T15:22:49.091Z,8.35
2023-06-07T15:25:17.843Z,7.80
2023-06-07T15:27:46.506Z,7.45
2023-06-07T15:30:15.425Z,8.27
2023-06-07T15:32:44.225Z,7.80
2023-06-07T15:35:14.398Z,7.90
2023-06-07T15:37:43.460Z,8.70
2023-06-07T15:40:12.729Z,7.53
2023-06-07T15:42:41.244Z,7.65
2023-06-07T15:45:10.718Z,8.00
2023-06-07T15:47:39.366Z,7.68
2023-06-07T15:50:09.066Z,9.80
2023-06-07T15:52:39.034Z,7.82
2023-06-07T15:55:08.702Z,6.85
2023-06-07T15:57:38.490Z,7.80
2023-06-07T16:00:16.264Z,7.45
2023-06-07T16:02:52.003Z,7.47
2023-06-07T16:05:20.746Z,7.57
2023-06-07T16:07:50.759Z,6.55
2023-06-07T16:10:19.476Z,7.65
2023-06-07T16:12:50.888Z,6.28
2023-06-07T16:15:20.991Z,6.35
2023-06-07T16:17:49.570Z,6.72
2023-06-07T16:20:18.636Z,7.13
2023-06-07T16:22:47.319Z,6.85
2023-06-07T16:25:17.384Z,6.65
2023-06-07T16:27:45.850Z,6.85
2023-06-07T16:30:15.661Z,7.22
2023-06-07T16:32:44.518Z,6.10
2023-06-07T16:35:13.261Z,7.28
2023-06-07T16:37:41.684Z,7.40
2023-06-07T16:40:11.354Z,6.75
2023-06-07T16:42:42.166Z,6.15
2023-06-07T16:45:11.787Z,6.10
2023-06-07T16:47:40.619Z,6.70
2023-06-07T16:50:11.201Z,6.80
2023-06-07T16:52:39.823Z,7.07
2023-06-07T16:55:09.399Z,6.80
2023-06-07T16:57:40.577Z,6.40
2023-06-07T17:00:10.654Z,6.70
2023-06-07T17:02:39.364Z,6.78
2023-06-07T17:05:09.271Z,6.75
2023-06-07T17:07:37.936Z,6.93
2023-06-07T17:10:07.782Z,6.07
2023-06-07T17:12:36.888Z,6.20
2023-06-07T17:15:08.429Z,6.65
2023-06-07T17:17:37.094Z,6.22
2023-06-07T17:20:06.944Z,6.13
2023-06-07T17:22:35.780Z,6.00
2023-06-07T17:25:04.304Z,5.88
2023-06-07T17:27:32.930Z,5.78
2023-06-07T17:30:01.745Z,5.57
2023-06-07T17:32:32.109Z,6.18
2023-06-07T17:35:00.637Z,5.47
2023-06-07T17:37:29.129Z,6.05
2023-06-07T17:39:57.618Z,6.35
2023-06-07T17:42:26.081Z,5.80
2023-06-07T17:44:54.846Z,6.00
2023-06-07T17:47:23.959Z,6.50
2023-06-07T17:49:54.011Z,5.82
2023-06-07T17:52:23.754Z,6.13
2023-06-07T17:54:52.524Z,6.00
2023-06-07T17:57:21.188Z,6.15
2023-06-07T17:59:49.608Z,6.40
2023-06-07T18:02:21.154Z,5.88
2023-06-07T18:04:49.755Z,5.05
2023-06-07T18:07:19.764Z,6.05
2023-06-07T18:09:49.532Z,6.10
2023-06-07T18:12:19.311Z,6.47
2023-06-07T18:14:47.928Z,6.70
2023-06-07T18:17:16.951Z,6.75
2023-06-07T18:19:45.688Z,7.07
2023-06-07T18:22:14.352Z,6.55
2023-06-07T18:24:44.200Z,6.70
2023-06-07T18:27:12.713Z,6.25
2023-06-07T18:29:41.282Z,6.37
2023-06-07T18:32:10.156Z,6.77
2023-06-07T18:34:38.737Z,6.33
2023-06-07T18:37:09.030Z,6.93
2023-06-07T18:39:37.617Z,6.30
2023-06-07T18:42:08.344Z,6.47
2023-06-07T18:44:37.445Z,6.97
2023-06-07T18:47:07.854Z,6.23
2023-06-07T18:49:36.620Z,7.43
2023-06-07T18:52:08.234Z,6.97
2023-06-07T18:54:36.758Z,7.73
2023-06-07T18:57:05.901Z,7.07
2023-06-07T18:59:36.033Z,7.80
2023-06-07T19:02:04.801Z,7.23
2023-06-07T19:04:33.543Z,7.50
2023-06-07T19:07:02.225Z,7.87
2023-06-07T19:09:30.854Z,7.13
2023-06-07T19:12:00.266Z,9.20
2023-06-07T19:14:29.661Z,8.20
2023-06-07T19:16:59.656Z,7.73
2023-06-07T19:19:28.197Z,8.10
2023-06-07T19:21:56.812Z,7.93
2023-06-07T19:24:25.517Z,8.47
2023-06-07T19:26:54.144Z,8.37
2023-06-07T19:29:22.560Z,8.47
2023-06-07T19:31:51.195Z,9.63
2023-06-07T19:34:21.162Z,8.77
2023-06-07T19:36:49.584Z,8.17
2023-06-07T19:39:18.124Z,7.53
2023-06-07T19:41:48.634Z,7.97
2023-06-07T19:44:17.265Z,7.70
2023-06-07T19:46:45.846Z,7.63
2023-06-07T19:49:14.415Z,9.37
2023-06-07T19:51:44.529Z,8.40
2023-06-07T19:54:13.241Z,8.03
2023-06-07T19:56:41.823Z,7.83
2023-06-07T19:59:10.417Z,7.63
2023-06-07T20:01:39.431Z,8.53
2023-06-07T20:04:08.349Z,8.90
2023-06-07T20:06:38.394Z,8.83
2023-06-07T20:09:08.638Z,9.40
2023-06-07T20:11:38.383Z,8.87
2023-06-07T20:14:07.159Z,8.83
2023-06-07T20:16:35.847Z,8.60
2023-06-07T20:19:04.938Z,8.13
2023-06-07T20:21:33.757Z,8.30
2023-06-07T20:24:02.482Z,8.53
2023-06-07T20:26:33.073Z,8.90
2023-06-07T20:29:02.818Z,8.27
2023-06-07T20:31:31.678Z,9.33
2023-06-07T20:34:01.024Z,10.67
2023-06-07T20:36:29.824Z,8.90
2023-06-07T20:39:00.618Z,8.60
2023-06-07T20:41:30.378Z,9.17
2023-06-07T20:44:00.600Z,9.50
2023-06-07T20:46:29.381Z,9.57
2023-06-07T20:48:58.854Z,9.70
2023-06-07T20:51:28.222Z,9.97
2023-06-07T20:53:56.746Z,10.00
2023-06-07T20:56:25.752Z,10.80
2023-06-07T20:58:54.420Z,9.80
2023-06-07T21:01:24.767Z,10.80
2023-06-07T21:03:54.013Z,9.87
2023-06-07T21:06:23.010Z,9.73
2023-06-07T21:08:51.805Z,11.77
2023-06-07T21:11:20.904Z,12.97
2023-06-07T21:13:49.639Z,14.50
2023-06-07T21:16:19.066Z,15.17
2023-06-07T21:18:49.033Z,14.83
2023-06-07T21:21:17.684Z,13.57
2023-06-07T21:23:46.351Z,14.13
2023-06-07T21:26:14.896Z,14.00
2023-06-07T21:28:43.424Z,13.50
2023-06-07T21:31:12.041Z,14.50
2023-06-07T21:33:40.643Z,14.03
2023-06-07T21:36:10.694Z,13.23
2023-06-07T21:38:39.196Z,13.13
2023-06-07T21:41:07.723Z,11.97
2023-06-07T21:43:36.403Z,12.40
2023-06-07T21:46:05.154Z,10.83
2023-06-07T21:48:37.131Z,9.47
2023-06-07T21:51:05.859Z,7.73
2023-06-07T21:53:36.082Z,7.60
2023-06-07T21:56:04.592Z,8.60
2023-06-07T21:58:33.117Z,6.40
2023-06-07T22:01:01.745Z,7.50
2023-06-07T22:03:30.278Z,7.40
2023-06-07T22:05:58.760Z,7.33
2023-06-07T22:08:27.242Z,6.73
2023-06-07T22:10:58.622Z,7.73
2023-06-07T22:13:27.295Z,6.70
2023-06-07T22:16:01.797Z,7.07
2023-06-07T22:18:32.673Z,6.43
2023-06-07T22:21:01.846Z,6.97
2023-06-07T22:23:30.451Z,6.70
2023-06-07T22:26:00.973Z,7.37
2023-06-07T22:28:33.857Z,6.27
2023-06-07T22:31:04.047Z,6.53
2023-06-07T22:33:33.738Z,7.23
2023-06-07T22:36:05.001Z,7.00
2023-06-07T22:38:33.425Z,6.77
2023-06-07T22:41:03.414Z,6.57
2023-06-07T22:43:32.212Z,6.50
2023-06-07T22:46:00.675Z,6.90
2023-06-07T22:48:30.121Z,6.83
2023-06-07T22:51:02.150Z,7.03
2023-06-07T22:53:30.732Z,7.10
2023-06-07T22:55:59.142Z,6.80
2023-06-07T22:58:29.216Z,7.10
2023-06-07T23:00:58.026Z,7.30
2023-06-07T23:03:27.114Z,7.23
2023-06-07T23:05:55.818Z,7.77
2023-06-07T23:08:24.387Z,7.77
2023-06-07T23:10:53.955Z,7.90
2023-06-07T23:13:23.252Z,7.37
2023-06-07T23:15:55.031Z,7.13
2023-06-07T23:18:24.588Z,7.60
2023-06-07T23:20:54.093Z,7.63
2023-06-07T23:23:22.698Z,7.63
2023-06-07T23:25:51.910Z,7.70
2023-06-07T23:28:20.730Z,7.03
2023-06-07T23:30:49.081Z,6.90
2023-06-07T23:33:19.474Z,6.80
2023-06-07T23:35:47.768Z,7.23
2023-06-07T23:38:16.124Z,7.57
2023-06-07T23:40:44.602Z,7.03
2023-06-07T23:43:13.269Z,7.10
2023-06-07T23:45:42.647Z,7.47
2023-06-07T23:48:11.915Z,7.67
2023-06-07T23:50:42.112Z,7.93
2023-06-07T23:53:11.138Z,7.90
2023-06-07T23:55:43.915Z,8.13
2023-06-07T23:58:13.073Z,8.10
